Time;durP1;ratioP1;P1;durP2;ratioP2;P2;SDS_P1;SDS_P2;PMS_P1;PMS_P2;Temp;Humidity;BMP_temperature;BMP_pressure;BME280_temperature;BME280_humidity;BME280_pressure;Samples;Min_cycle;Max_cycle;Signal;HPM_P1;HPM_P2
2023/07/03 00:00:11;;;;;;;17.73;5.40;;;15.40;45.00;;;;;;5076500;28;20561;-65
2023/07/03 00:02:36;;;;;;;25.17;5.87;;;15.40;46.30;;;;;;5076404;28;20686;-68
2023/07/03 00:05:03;;;;;;;19.87;5.40;;;15.40;47.00;;;;;;5076493;28;20208;-66
2023/07/03 00:07:28;;;;;;;20.30;5.17;;;15.40;48.10;;;;;;5076530;28;20177;-66
2023/07/03 00:09:54;;;;;;;21.23;5.00;;;15.40;49.50;;;;;;5076538;28;20217;-66
2023/07/03 00:12:20;;;;;;;22.43;5.53;;;15.40;53.20;;;;;;5076438;28;20644;-66
2023/07/03 00:14:45;;;;;;;22.30;5.97;;;15.40;52.80;;;;;;5076120;28;20513;-66
2023/07/03 00:17:11;;;;;;;18.73;5.87;;;15.40;55.80;;;;;;5076206;28;20218;-66
2023/07/03 00:19:37;;;;;;;20.13;5.60;;;15.40;56.10;;;;;;5076075;28;20192;-66
2023/07/03 00:22:03;;;;;;;18.60;5.10;;;15.40;57.30;;;;;;5076078;28;20173;-66
2023/07/03 00:24:30;;;;;;;18.00;5.13;;;15.40;59.20;;;;;;5076262;28;20169;-66
2023/07/03 00:26:56;;;;;;;16.20;4.93;;;15.40;62.40;;;;;;5076396;28;20176;-66
2023/07/03 00:29:22;;;;;;;23.33;5.50;;;15.50;59.30;;;;;;5075864;28;20265;-66
2023/07/03 00:31:48;;;;;;;22.07;5.80;;;15.50;61.60;;;;;;5076016;28;20191;-67
2023/07/03 00:34:14;;;;;;;27.33;6.13;;;15.40;60.80;;;;;;5075900;28;20169;-66
2023/07/03 00:36:39;;;;;;;26.73;6.73;;;15.40;64.60;;;;;;5076142;28;20246;-66
2023/07/03 00:39:05;;;;;;;21.07;5.67;;;15.40;69.70;;;;;;5075701;28;20734;-66
2023/07/03 00:41:32;;;;;;;23.00;5.77;;;15.40;68.20;;;;;;5075812;28;20164;-66
2023/07/03 00:43:57;;;;;;;18.17;5.47;;;15.50;70.20;;;;;;5075448;28;20196;-66
2023/07/03 00:46:24;;;;;;;26.93;5.97;;;15.40;71.90;;;;;;5075760;28;20207;-66
2023/07/03 00:48:50;;;;;;;25.23;6.10;;;15.40;73.80;;;;;;5075838;28;20172;-67
2023/07/03 00:51:16;;;;;;;23.10;6.27;;;15.40;74.30;;;;;;5075339;28;20208;-65
2023/07/03 00:53:43;;;;;;;20.17;5.57;;;15.40;74.60;;;;;;5075715;28;20231;-68
2023/07/03 00:56:09;;;;;;;27.30;6.37;;;15.50;74.80;;;;;;5075622;28;20184;-65
2023/07/03 00:58:35;;;;;;;25.63;6.10;;;15.40;76.90;;;;;;5075307;28;20168;-66
2023/07/03 01:01:38;;;;;;;18.97;5.43;;;15.40;77.60;;;;;;5075569;28;20635;-66
2023/07/03 01:04:10;;;;;;;17.03;5.07;;;15.40;84.60;;;;;;4986721;28;20254;-67
2023/07/03 01:06:42;;;;;;;20.63;5.80;;;15.30;88.50;;;;;;5075492;28;20251;-66
2023/07/03 01:09:10;;;;;;;22.43;5.33;;;15.20;92.00;;;;;;5075575;28;20172;-66
2023/07/03 01:11:36;;;;;;;21.30;5.90;;;15.20;93.80;;;;;;5074795;28;20179;-67
2023/07/03 01:14:03;;;;;;;21.27;6.43;;;15.20;94.60;;;;;;5057523;28;20177;-66
2023/07/03 01:16:32;;;;;;;23.67;6.10;;;15.20;96.30;;;;;;5075149;28;20737;-65
2023/07/03 01:18:59;;;;;;;20.40;6.20;;;15.10;98.60;;;;;;5074993;28;20654;-67
2023/07/03 01:21:45;;;;;;;24.40;10.13;;;15.10;99.90;;;;;;5075071;28;20263;-66
2023/07/03 01:24:14;;;;;;;20.97;6.13;;;15.10;99.90;;;;;;5075141;28;20173;-66
2023/07/03 01:26:43;;;;;;;20.90;5.27;;;15.10;99.90;;;;;;5074723;28;20259;-66
2023/07/03 01:29:10;;;;;;;25.03;6.30;;;15.10;99.90;;;;;;5075051;28;20192;-66
2023/07/03 01:31:38;;;;;;;22.87;6.40;;;15.10;99.90;;;;;;5074753;28;20180;-66
2023/07/03 01:34:06;;;;;;;23.10;6.10;;;15.00;99.90;;;;;;5074941;28;20190;-66
2023/07/03 01:36:33;;;;;;;23.87;5.97;;;15.00;99.90;;;;;;5075126;28;20181;-66
2023/07/03 01:39:01;;;;;;;22.97;6.17;;;15.10;99.90;;;;;;5074596;28;20231;-66
2023/07/03 01:41:28;;;;;;;22.17;6.00;;;15.10;99.90;;;;;;5074403;28;20251;-67
2023/07/03 01:43:54;;;;;;;25.17;6.83;;;15.10;99.90;;;;;;5074660;28;20639;-67
2023/07/03 01:46:19;;;;;;;26.40;6.20;;;15.10;99.90;;;;;;5074547;28;20261;-67
2023/07/03 01:48:45;;;;;;;22.50;6.83;;;15.00;99.90;;;;;;5074617;28;20168;-66
2023/07/03 01:51:17;;;;;;;26.60;6.03;;;15.10;99.90;;;;;;5074493;28;20567;-67
2023/07/03 01:53:49;;;;;;;28.80;6.23;;;15.10;99.90;;;;;;5074498;28;20224;-67
2023/07/03 01:56:24;;;;;;;26.07;6.67;;;15.10;99.90;;;;;;5074221;28;20754;-66
2023/07/03 01:59:04;;;;;;;23.17;6.73;;;15.10;99.90;;;;;;5074302;28;20270;-67
2023/07/03 02:01:52;;;;;;;29.03;6.83;;;15.10;99.90;;;;;;5074349;28;20650;-67
2023/07/03 02:04:27;;;;;;;23.97;6.53;;;15.10;99.90;;;;;;5073667;28;20163;-65
2023/07/03 02:06:55;;;;;;;20.70;6.07;;;15.10;99.90;;;;;;5074230;28;20168;-67
2023/07/03 02:09:21;;;;;;;22.83;6.67;;;15.10;99.90;;;;;;5073853;28;20200;-67
2023/07/03 02:11:48;;;;;;;26.97;6.80;;;15.10;99.90;;;;;;5074080;28;20168;-66
2023/07/03 02:14:14;;;;;;;21.53;6.27;;;15.20;99.90;;;;;;5074207;28;20164;-66
2023/07/03 02:16:41;;;;;;;22.40;6.40;;;15.20;99.90;;;;;;5074257;28;20579;-66
2023/07/03 02:19:08;;;;;;;30.27;7.33;;;15.20;99.90;;;;;;5074014;28;20235;-66
2023/07/03 02:21:38;;;;;;;19.87;6.80;;;15.20;99.90;;;;;;5073862;28;20169;-66
2023/07/03 02:24:04;;;;;;;22.80;6.20;;;15.30;99.90;;;;;;5073604;28;20640;-66
2023/07/03 02:26:29;;;;;;;20.33;6.10;;;15.20;99.90;;;;;;5073789;28;20169;-65
2023/07/03 02:28:55;;;;;;;21.77;6.97;;;15.20;99.90;;;;;;5073781;28;20176;-66
2023/07/03 02:31:20;;;;;;;31.10;7.20;;;15.20;99.90;;;;;;5073772;28;20242;-66
2023/07/03 02:33:46;;;;;;;28.23;7.07;;;15.20;99.90;;;;;;5073750;28;20667;-66
2023/07/03 02:36:12;;;;;;;25.87;6.73;;;15.20;99.90;;;;;;5073663;28;20294;-66
2023/07/03 02:38:37;;;;;;;20.70;7.00;;;15.30;99.90;;;;;;5073107;28;20303;-65
2023/07/03 02:41:03;;;;;;;24.87;6.83;;;15.20;99.90;;;;;;5073251;28;20179;-66
2023/07/03 02:43:30;;;;;;;22.83;6.67;;;15.30;99.90;;;;;;5073442;28;20175;-66
2023/07/03 02:46:05;;;;;;;20.87;6.97;;;15.30;99.90;;;;;;5073626;28;20176;-66
2023/07/03 02:48:31;;;;;;;19.77;6.30;;;15.30;99.90;;;;;;5073565;28;20168;-66
2023/07/03 02:50:57;;;;;;;23.53;7.23;;;15.20;99.90;;;;;;5073305;28;20279;-66
2023/07/03 02:53:22;;;;;;;27.40;7.73;;;15.20;99.90;;;;;;5072952;28;20226;-66
2023/07/03 02:55:49;;;;;;;25.43;6.90;;;15.20;99.90;;;;;;5073171;28;20640;-66
2023/07/03 02:58:17;;;;;;;23.50;6.90;;;15.20;99.90;;;;;;5073573;28;20172;-66
2023/07/03 03:00:42;;;;;;;20.63;6.53;;;15.20;99.90;;;;;;5073210;28;20176;-66
2023/07/03 03:03:08;;;;;;;23.53;7.37;;;15.30;99.90;;;;;;5055014;28;20234;-67
2023/07/03 03:05:34;;;;;;;24.57;7.83;;;15.30;99.90;;;;;;5073451;28;20257;-66
2023/07/03 03:07:59;;;;;;;25.03;7.40;;;15.30;99.90;;;;;;5072967;28;20533;-66
2023/07/03 03:10:25;;;;;;;22.73;6.60;;;15.30;99.90;;;;;;5072988;28;20207;-66
2023/07/03 03:12:51;;;;;;;18.97;6.70;;;15.40;99.90;;;;;;5073120;28;20255;-66
2023/07/03 03:15:18;;;;;;;27.90;7.90;;;15.40;99.90;;;;;;5073010;28;20211;-66
2023/07/03 03:17:44;;;;;;;33.07;7.93;;;15.40;99.90;;;;;;5073133;28;20165;-65
2023/07/03 03:20:13;;;;;;;27.40;7.60;;;15.30;99.90;;;;;;5054572;28;20541;-66
2023/07/03 03:22:42;;;;;;;21.63;7.30;;;15.30;99.90;;;;;;5072444;28;20239;-65
2023/07/03 03:25:07;;;;;;;18.40;6.83;;;15.30;99.90;;;;;;5073195;28;20255;-67
2023/07/03 03:27:33;;;;;;;23.20;6.90;;;15.30;99.90;;;;;;5072779;28;20310;-66
2023/07/03 03:29:59;;;;;;;25.40;8.00;;;15.30;99.90;;;;;;5072959;28;20211;-66
2023/07/03 03:32:25;;;;;;;22.33;7.07;;;15.30;99.90;;;;;;5072974;28;20667;-66
2023/07/03 03:34:50;;;;;;;22.40;7.37;;;15.30;99.90;;;;;;5072563;28;20200;-66
2023/07/03 03:37:17;;;;;;;20.57;7.20;;;15.20;99.90;;;;;;5072243;28;20521;-66
2023/07/03 03:39:43;;;;;;;21.97;7.17;;;15.20;99.90;;;;;;5072016;28;20717;-67
2023/07/03 03:42:11;;;;;;;22.97;7.50;;;15.20;99.90;;;;;;5072753;28;20636;-65
2023/07/03 03:44:38;;;;;;;23.17;7.43;;;15.30;99.90;;;;;;5072675;28;20177;-66
2023/07/03 03:47:04;;;;;;;21.47;7.10;;;15.30;99.90;;;;;;5072956;28;20202;-66
2023/07/03 03:49:30;;;;;;;24.77;7.60;;;15.30;99.90;;;;;;5072789;28;20188;-66
2023/07/03 03:51:56;;;;;;;27.20;7.63;;;15.30;99.90;;;;;;5072111;28;20172;-66
2023/07/03 03:54:21;;;;;;;25.53;7.73;;;15.40;99.90;;;;;;5072357;28;20169;-67
2023/07/03 03:56:47;;;;;;;23.57;7.03;;;15.40;99.90;;;;;;5071896;28;20178;-67
2023/07/03 03:59:13;;;;;;;20.60;6.80;;;15.40;99.90;;;;;;5054368;28;20248;-67
2023/07/03 04:01:39;;;;;;;24.13;7.30;;;15.40;99.90;;;;;;5072561;28;20582;-66
2023/07/03 04:04:05;;;;;;;22.40;7.80;;;15.30;99.90;;;;;;5072572;28;20240;-67
2023/07/03 04:06:31;;;;;;;24.00;7.03;;;15.40;99.90;;;;;;5071736;28;20204;-67
2023/07/03 04:08:58;;;;;;;25.77;7.40;;;15.30;99.90;;;;;;5071897;28;20168;-66
2023/07/03 04:11:28;;;;;;;21.10;7.00;;;15.30;99.90;;;;;;5071754;28;20212;-66
2023/07/03 04:13:53;;;;;;;22.27;6.97;;;15.40;99.90;;;;;;5072216;28;20168;-68
2023/07/03 04:16:19;;;;;;;23.60;7.20;;;15.40;99.90;;;;;;5072473;28;20314;-67
2023/07/03 04:18:45;;;;;;;20.77;6.80;;;15.40;99.90;;;;;;5072366;28;20173;-66
2023/07/03 04:21:11;;;;;;;24.73;7.50;;;15.50;99.90;;;;;;5071089;28;20180;-67
2023/07/03 04:23:36;;;;;;;21.17;7.27;;;15.50;99.90;;;;;;5071778;28;20640;-66
2023/07/03 04:26:02;;;;;;;25.53;7.70;;;15.50;99.90;;;;;;5072617;28;20535;-66
2023/07/03 04:28:28;;;;;;;22.27;7.37;;;15.60;99.90;;;;;;5075414;28;20218;-67
2023/07/03 04:30:54;;;;;;;27.70;7.73;;;15.60;99.90;;;;;;5075687;28;20350;-66
2023/07/03 04:33:19;;;;;;;20.23;7.60;;;15.70;99.90;;;;;;5075610;28;20582;-66
2023/07/03 04:35:47;;;;;;;23.30;7.33;;;15.70;99.90;;;;;;5075397;28;20553;-67
2023/07/03 04:38:12;;;;;;;25.23;7.57;;;15.70;99.90;;;;;;5074845;28;20168;-67
2023/07/03 04:40:38;;;;;;;25.33;7.80;;;15.70;99.90;;;;;;5075578;28;20184;-66
2023/07/03 04:43:07;;;;;;;24.43;7.37;;;15.80;99.90;;;;;;5075234;28;20647;-67
2023/07/03 04:45:47;;;;;;;23.13;7.30;;;15.90;99.90;;;;;;5075130;28;20208;-69
2023/07/03 04:48:13;;;;;;;22.67;7.00;;;15.90;99.90;;;;;;5057478;28;20168;-68
2023/07/03 04:50:39;;;;;;;23.23;8.17;;;16.10;99.90;;;;;;5074625;28;20667;-68
2023/07/03 04:53:05;;;;;;;21.80;7.13;;;16.20;99.90;;;;;;5075023;28;20161;-68
2023/07/03 04:55:32;;;;;;;17.03;7.23;;;16.40;99.90;;;;;;5075266;28;20530;-67
2023/07/03 04:57:59;;;;;;;21.70;6.57;;;16.50;99.90;;;;;;5075066;28;20184;-67
2023/07/03 05:00:27;;;;;;;23.10;7.20;;;16.50;99.90;;;;;;5075224;28;20167;-68
2023/07/03 05:02:53;;;;;;;22.00;7.83;;;16.70;99.20;;;;;;5074525;28;20218;-66
2023/07/03 05:05:20;;;;;;;22.03;6.97;;;16.70;96.50;;;;;;5056988;28;20630;-67
2023/07/03 05:07:46;;;;;;;22.73;7.63;;;17.00;93.50;;;;;;5075072;28;20175;-67
2023/07/03 05:10:13;;;;;;;22.10;6.77;;;17.60;87.00;;;;;;5074425;28;20295;-67
2023/07/03 05:12:39;;;;;;;21.15;6.88;;;18.80;43.00;;;;;;5074503;28;20199;-69
2023/07/03 05:15:08;;;;;;;17.52;6.90;;;20.30;1.00;;;;;;5074861;28;20208;-68
2023/07/03 05:17:35;;;;;;;18.92;6.78;;;20.60;1.00;;;;;;5073929;28;20165;-68
2023/07/03 05:20:01;;;;;;;17.85;6.53;;;20.90;1.00;;;;;;5074535;28;20201;-69
2023/07/03 05:22:27;;;;;;;17.65;6.75;;;22.00;1.00;;;;;;5074036;28;20173;-70
2023/07/03 05:24:55;;;;;;;18.92;6.75;;;22.60;1.00;;;;;;5073999;28;20688;-70
2023/07/03 05:27:20;;;;;;;14.88;6.65;;;23.30;1.00;;;;;;5074634;28;20172;-68
2023/07/03 05:29:46;;;;;;;14.70;6.55;;;23.40;1.00;;;;;;5073966;28;20663;-68
2023/07/03 05:32:12;;;;;;;17.52;6.70;;;22.70;1.00;;;;;;5073165;28;20529;-67
2023/07/03 05:34:38;;;;;;;19.67;6.75;;;22.10;1.00;;;;;;5074274;28;20171;-66
2023/07/03 05:37:05;;;;;;;15.75;6.72;;;21.80;1.00;;;;;;5074336;28;20161;-66
2023/07/03 05:39:30;;;;;;;16.02;7.35;;;21.10;1.00;;;;;;5072682;28;20319;-67
2023/07/03 05:41:56;;;;;;;15.23;6.60;;;20.30;1.00;;;;;;5073709;28;20207;-67
2023/07/03 05:44:22;;;;;;;17.13;6.22;;;20.10;1.00;;;;;;5074009;28;20184;-67
2023/07/03 05:46:48;;;;;;;17.65;6.90;;;19.60;1.00;;;;;;5073808;28;20301;-67
2023/07/03 05:49:13;;;;;;;19.83;7.30;;;19.10;6.00;;;;;;5073734;28;20654;-68
2023/07/03 05:51:39;;;;;;;17.33;6.47;;;18.70;20.80;;;;;;5073088;28;20656;-66
2023/07/03 05:54:04;;;;;;;24.67;7.50;;;18.30;29.10;;;;;;5074217;28;20222;-67
2023/07/03 05:56:30;;;;;;;17.88;7.40;;;18.10;42.60;;;;;;5073388;28;20588;-67
2023/07/03 05:58:56;;;;;;;19.25;7.15;;;17.90;50.00;;;;;;5073289;28;20164;-67
2023/07/03 06:01:22;;;;;;;23.35;7.18;;;17.80;55.30;;;;;;5073228;28;20176;-65
2023/07/03 06:03:48;;;;;;;14.50;7.07;;;17.40;71.10;;;;;;5073875;28;20176;-66
2023/07/03 06:06:14;;;;;;;20.83;7.53;;;17.30;79.90;;;;;;5072945;28;20160;-67
2023/07/03 06:08:40;;;;;;;22.40;8.40;;;17.30;87.20;;;;;;5073546;28;20231;-67
2023/07/03 06:11:06;;;;;;;24.63;9.87;;;17.30;90.70;;;;;;5072410;28;20235;-67
2023/07/03 06:13:32;;;;;;;23.37;8.30;;;17.20;91.60;;;;;;5072826;28;20244;-67
2023/07/03 06:15:57;;;;;;;19.30;8.20;;;17.00;95.50;;;;;;5073126;28;20229;-66
2023/07/03 06:18:23;;;;;;;19.20;8.63;;;17.00;99.00;;;;;;5073059;28;20172;-66
2023/07/03 06:20:49;;;;;;;23.43;8.10;;;17.00;99.90;;;;;;5072583;28;20215;-65
2023/07/03 06:23:15;;;;;;;25.80;8.80;;;17.00;99.90;;;;;;5073347;28;20524;-67
2023/07/03 06:25:41;;;;;;;20.10;8.60;;;17.00;99.90;;;;;;5072951;28;20168;-66
2023/07/03 06:28:07;;;;;;;21.63;9.17;;;17.00;99.90;;;;;;5055082;28;20491;-67
2023/07/03 06:30:33;;;;;;;20.87;8.67;;;17.10;99.90;;;;;;5072176;28;20250;-67
2023/07/03 06:32:58;;;;;;;24.73;8.63;;;16.90;99.90;;;;;;5072568;28;20226;-67
2023/07/03 06:35:24;;;;;;;22.27;8.60;;;17.00;99.90;;;;;;5072356;28;20187;-66
2023/07/03 06:37:53;;;;;;;25.07;8.70;;;16.90;99.90;;;;;;5072451;28;20258;-66
2023/07/03 06:40:19;;;;;;;21.03;8.67;;;16.80;99.90;;;;;;5072642;28;20224;-66
2023/07/03 06:42:44;;;;;;;23.13;8.47;;;16.70;99.90;;;;;;5072208;28;20183;-66
2023/07/03 06:45:10;;;;;;;20.33;8.63;;;16.60;99.90;;;;;;5071959;28;20177;-66
2023/07/03 06:47:36;;;;;;;20.97;7.90;;;16.70;99.90;;;;;;5072801;28;20194;-66
2023/07/03 06:50:02;;;;;;;20.23;8.60;;;16.60;99.90;;;;;;5072481;28;20208;-66
2023/07/03 06:52:28;;;;;;;20.67;7.87;;;16.70;99.90;;;;;;5054525;28;20652;-66
2023/07/03 06:54:53;;;;;;;22.03;8.37;;;16.80;99.90;;;;;;5072326;28;20180;-66
2023/07/03 06:57:19;;;;;;;19.57;8.93;;;16.90;99.90;;;;;;5072379;28;20613;-67
2023/07/03 06:59:45;;;;;;;22.93;8.63;;;16.80;99.90;;;;;;5071723;28;20584;-66
2023/07/03 07:02:10;;;;;;;22.53;8.40;;;16.60;99.90;;;;;;5072277;28;20184;-66
2023/07/03 07:04:36;;;;;;;28.33;8.23;;;16.50;99.90;;;;;;5072501;28;20180;-65
2023/07/03 07:07:01;;;;;;;21.67;8.37;;;16.40;99.90;;;;;;5072470;28;20185;-66
2023/07/03 07:09:27;;;;;;;23.40;8.77;;;16.50;99.90;;;;;;5072522;28;20165;-65
2023/07/03 07:11:53;;;;;;;18.93;8.37;;;16.60;99.90;;;;;;5072401;28;20718;-68
2023/07/03 07:14:18;;;;;;;20.33;7.40;;;16.70;99.90;;;;;;5072088;28;20643;-66
2023/07/03 07:16:44;;;;;;;14.00;6.77;;;16.70;99.90;;;;;;5072492;28;20180;-67
2023/07/03 07:19:11;;;;;;;16.10;6.03;;;16.70;99.90;;;;;;5071912;28;20192;-66
2023/07/03 07:21:41;;;;;;;17.10;6.70;;;16.90;99.90;;;;;;5072257;28;20168;-66
2023/07/03 07:24:19;;;;;;;16.93;7.20;;;16.90;99.90;;;;;;5072517;28;20169;-67
2023/07/03 07:26:45;;;;;;;21.80;7.60;;;16.90;99.90;;;;;;5072131;28;20180;-67
2023/07/03 07:29:11;;;;;;;19.03;7.47;;;17.00;99.90;;;;;;5070963;28;20197;-67
2023/07/03 07:31:37;;;;;;;19.50;7.07;;;17.30;99.90;;;;;;5063636;28;20215;-68
2023/07/03 07:34:04;;;;;;;18.63;7.70;;;18.20;56.20;;;;;;5066607;28;20225;-67
2023/07/03 07:36:30;;;;;;;17.80;7.00;;;19.10;27.80;;;;;;5070000;28;20213;-68
2023/07/03 07:38:58;;;;;;;20.08;7.75;;;19.40;15.90;;;;;;5069317;28;20212;-67
2023/07/03 07:41:24;;;;;;;16.25;6.72;;;19.60;9.80;;;;;;5069060;28;20180;-67
2023/07/03 07:43:51;;;;;;;18.10;7.13;;;19.40;12.30;;;;;;5067258;28;20652;-68
2023/07/03 07:46:17;;;;;;;21.58;7.28;;;19.40;6.70;;;;;;5080465;28;20180;-67
2023/07/03 07:48:45;;;;;;;16.98;7.03;;;19.20;7.20;;;;;;5062166;28;20688;-67
2023/07/03 07:51:11;;;;;;;14.98;6.43;;;19.20;1.00;;;;;;5067210;28;20216;-66
2023/07/03 07:53:38;;;;;;;17.10;6.65;;;18.80;1.00;;;;;;5070789;28;20268;-67
2023/07/03 07:56:05;;;;;;;15.43;5.95;;;18.90;3.80;;;;;;5068492;28;20237;-67
2023/07/03 07:58:31;;;;;;;13.73;6.25;;;19.60;1.00;;;;;;5057374;28;20215;-69
2023/07/03 08:00:57;;;;;;;17.40;6.13;;;20.90;1.00;;;;;;5063274;28;20640;-68
2023/07/03 08:03:23;;;;;;;14.63;6.40;;;22.60;1.00;;;;;;5072590;28;20640;-68
2023/07/03 08:05:55;;;;;;;15.63;6.05;;;23.70;1.00;;;;;;5072804;28;20184;-67
2023/07/03 08:08:20;;;;;;;17.33;6.53;;;23.60;1.00;;;;;;5072505;28;20180;-68
2023/07/03 08:10:57;;;;;;;15.85;5.95;;;23.50;99.90;;;;;;5075110;28;20667;-67
2023/07/03 08:13:24;;;;;;;11.75;6.25;;;22.90;1.00;;;;;;5062811;28;20242;-68
2023/07/03 08:15:49;;;;;;;11.32;6.22;;;22.30;1.00;;;;;;5070279;28;20181;-68
2023/07/03 08:18:16;;;;;;;15.13;5.75;;;22.90;1.00;;;;;;5073162;28;20177;-68
2023/07/03 08:20:42;;;;;;;12.70;5.95;;;22.40;1.00;;;;;;5073237;28;20204;-69
2023/07/03 08:23:08;;;;;;;11.68;5.47;;;21.60;1.00;;;;;;5066952;28;20187;-69
2023/07/03 08:25:34;;;;;;;15.07;5.63;;;21.00;1.00;;;;;;5065477;28;20544;-68
2023/07/03 08:27:59;;;;;;;15.35;4.57;;;20.50;1.00;;;;;;5068171;28;20177;-67
2023/07/03 08:30:25;;;;;;;16.00;4.80;;;20.10;1.00;;;;;;5068246;28;20216;-69
2023/07/03 08:32:51;;;;;;;17.88;5.50;;;19.70;1.00;;;;;;5064861;28;20195;-68
2023/07/03 08:35:17;;;;;;;12.52;5.07;;;19.60;1.00;;;;;;5068988;28;20299;-67
2023/07/03 08:37:43;;;;;;;16.33;5.38;;;19.20;1.00;;;;;;5074139;28;20670;-68
2023/07/03 08:40:11;;;;;;;14.55;5.30;;;19.20;1.00;;;;;;5067619;28;20534;-68
2023/07/03 08:42:44;;;;;;;20.50;6.47;;;19.50;1.00;;;;;;5069943;28;20180;-67
2023/07/03 08:45:13;;;;;;;12.70;4.70;;;20.00;1.00;;;;;;5074320;28;20530;-69
2023/07/03 08:47:40;;;;;;;10.63;4.90;;;21.40;1.00;;;;;;5073607;28;20627;-69
2023/07/03 08:50:07;;;;;;;13.23;5.38;;;22.50;1.00;;;;;;5073008;28;20207;-69
2023/07/03 08:52:41;;;;;;;16.45;5.13;;;23.80;99.90;;;;;;5069570;28;20184;-69
2023/07/03 08:55:09;;;;;;;9.20;4.40;;;24.50;1.00;;;;;;5068498;28;20663;-69
2023/07/03 08:57:37;;;;;;;9.50;4.40;;;24.50;1.00;;;;;;5072869;28;20192;-68
2023/07/03 09:00:10;;;;;;;13.02;4.75;;;24.30;1.00;;;;;;5072889;28;20200;-69
2023/07/03 09:02:44;;;;;;;8.63;4.60;;;24.10;1.00;;;;;;5069017;28;20172;-68
2023/07/03 09:05:15;;;;;;;9.90;3.88;;;24.80;1.00;;;;;;5072942;28;20687;-68
2023/07/03 09:07:53;;;;;;;9.35;3.75;;;24.90;1.00;;;;;;5073671;28;20339;-69
2023/07/03 09:10:23;;;;;;;9.60;4.20;;;23.70;99.90;;;;;;5068073;28;20234;-69
2023/07/03 09:13:15;;;;;;;9.32;4.35;;;23.40;1.00;;;;;;5065041;28;20173;-69
2023/07/03 09:15:57;;;;;;;8.05;4.03;;;22.50;1.00;;;;;;5068369;28;20187;-68
2023/07/03 09:18:27;;;;;;;12.30;4.10;;;22.20;1.00;;;;;;5072951;28;20267;-67
2023/07/03 09:20:54;;;;;;;13.85;5.07;;;21.60;99.90;;;;;;5066686;28;20612;-68
2023/07/03 09:23:31;;;;;;;14.02;5.28;;;21.60;1.00;;;;;;5071090;28;20189;-68
2023/07/03 09:26:18;;;;;;;12.27;5.20;;;21.60;1.00;;;;;;5065425;28;20585;-68
2023/07/03 09:28:46;;;;;;;10.90;4.50;;;22.10;1.00;;;;;;5070042;28;20275;-68
2023/07/03 09:31:11;;;;;;;12.30;4.30;;;22.60;99.90;;;;;;5071661;28;20683;-69
2023/07/03 09:33:37;;;;;;;9.40;4.45;;;24.00;99.90;;;;;;5069873;28;20184;-70
2023/07/03 09:36:18;;;;;;;12.57;4.50;;;24.30;99.90;;;;;;5072185;28;20176;-68
2023/07/03 09:38:44;;;;;;;9.50;4.00;;;23.80;99.90;;;;;;5072123;28;20311;-68
2023/07/03 09:41:10;;;;;;;7.35;3.55;;;23.10;99.90;;;;;;5071873;28;20192;-67
2023/07/03 09:43:43;;;;;;;13.40;4.07;;;22.50;99.90;;;;;;5053433;28;20511;-68
2023/07/03 09:46:12;;;;;;;9.85;3.72;;;22.60;1.00;;;;;;5068191;28;20190;-67
2023/07/03 09:48:38;;;;;;;10.18;4.05;;;22.30;99.90;;;;;;5053743;28;20188;-68
2023/07/03 09:51:25;;;;;;;11.48;4.32;;;22.20;99.90;;;;;;5068164;28;20223;-67
2023/07/03 09:53:51;;;;;;;10.15;3.92;;;21.90;99.90;;;;;;5034967;28;20184;-66
2023/07/03 09:56:21;;;;;;;9.82;4.05;;;21.40;99.90;;;;;;5063736;28;20260;-66
2023/07/03 09:58:58;;;;;;;12.18;4.00;;;20.80;1.00;;;;;;5071514;28;20577;-66
2023/07/03 10:01:28;;;;;;;12.15;4.05;;;20.80;1.00;;;;;;5072177;28;20192;-67
2023/07/03 10:04:14;;;;;;;6.78;3.28;;;21.00;99.90;;;;;;5072397;28;20283;-66
2023/07/03 10:06:43;;;;;;;10.13;3.45;;;20.90;99.90;;;;;;5050675;28;20184;-67
2023/07/03 10:09:25;;;;;;;8.15;3.25;;;21.60;1.00;;;;;;5071554;28;20181;-66
2023/07/03 10:12:09;;;;;;;11.85;3.88;;;22.00;1.00;;;;;;5071650;28;20268;-68
2023/07/03 10:15:06;;;;;;;10.43;3.67;;;22.00;1.00;;;;;;5071261;28;20322;-67
2023/07/03 10:17:45;;;;;;;7.10;3.58;;;22.00;1.00;;;;;;5079048;28;20188;-67
2023/07/03 10:20:16;;;;;;;11.60;3.75;;;21.80;1.00;;;;;;5061309;28;20656;-68
2023/07/03 10:22:43;;;;;;;11.52;3.90;;;21.90;1.00;;;;;;5070026;28;20177;-66
2023/07/03 10:25:17;;;;;;;10.00;3.50;;;21.70;1.00;;;;;;5070973;28;20267;-67
2023/07/03 10:27:43;;;;;;;5.63;3.00;;;22.10;99.90;;;;;;5065835;28;20173;-69
2023/07/03 10:30:15;;;;;;;11.45;3.58;;;23.00;1.00;;;;;;5052550;28;20205;-69
2023/07/03 10:32:45;;;;;;;7.43;3.50;;;23.50;1.00;;;;;;5071898;28;20635;-71
2023/07/03 10:35:20;;;;;;;8.02;3.45;;;23.60;99.90;;;;;;5071263;28;20328;-70
2023/07/03 10:38:15;;;;;;;9.57;3.47;;;23.90;39.70;;;;;;5055357;28;20627;-70
2023/07/03 10:40:57;;;;;;;8.73;3.28;;;24.20;1.00;;;;;;5072177;28;20197;-70
2023/07/03 10:43:28;;;;;;;8.50;3.55;;;23.30;99.90;;;;;;5072403;28;20172;-69
2023/07/03 10:45:55;;;;;;;9.85;3.45;;;23.40;99.90;;;;;;5072641;28;20235;-70
2023/07/03 10:48:28;;;;;;;10.35;3.50;;;23.40;1.00;;;;;;5072393;28;20322;-69
2023/07/03 10:51:12;;;;;;;10.27;3.47;;;23.70;99.90;;;;;;5070857;28;20295;-69
2023/07/03 10:53:46;;;;;;;7.95;3.28;;;23.40;99.90;;;;;;5072174;28;20164;-72
2023/07/03 10:56:33;;;;;;;9.63;3.95;;;23.00;99.90;;;;;;5072637;28;20172;-69
2023/07/03 10:59:20;;;;;;;14.02;4.13;;;22.90;1.00;;;;;;5071852;28;20165;-70
2023/07/03 11:02:03;;;;;;;12.80;3.75;;;22.70;1.00;;;;;;5072460;28;20210;-68
2023/07/03 11:04:54;;;;;;;9.55;3.22;;;22.40;1.00;;;;;;5071455;28;20577;-68
2023/07/03 11:07:31;;;;;;;7.97;3.70;;;21.90;99.90;;;;;;5068416;28;20199;-68
2023/07/03 11:10:02;;;;;;;10.85;3.78;;;21.30;15.10;;;;;;5071438;28;20720;-67
2023/07/03 11:13:01;;;;;;;10.68;3.80;;;21.30;99.90;;;;;;5071186;28;20187;-67
2023/07/03 11:15:45;;;;;;;15.95;3.83;;;21.30;99.90;;;;;;5072124;28;20176;-67
2023/07/03 11:18:36;;;;;;;8.48;3.28;;;22.40;99.90;;;;;;5071988;28;20175;-67
2023/07/03 11:21:07;;;;;;;9.98;3.50;;;22.70;1.00;;;;;;5071381;28;20169;-67
2023/07/03 11:23:47;;;;;;;11.93;3.60;;;22.60;1.00;;;;;;5072514;28;20172;-67
2023/07/03 11:26:27;;;;;;;7.50;3.08;;;22.60;99.90;;;;;;5053730;28;20176;-68
2023/07/03 11:28:54;;;;;;;10.52;3.40;;;22.50;1.00;;;;;;5059725;28;20628;-66
2023/07/03 11:31:22;;;;;;;10.55;3.20;;;22.60;22.90;;;;;;5051300;28;20778;-67
2023/07/03 11:33:49;;;;;;;9.57;3.28;;;22.10;1.00;;;;;;5051834;28;20214;-67
2023/07/03 11:36:40;;;;;;;10.02;3.22;;;22.20;1.00;;;;;;5052635;28;20212;-67
2023/07/03 11:39:19;;;;;;;13.70;3.35;;;22.10;1.00;;;;;;5055659;28;20227;-67
2023/07/03 11:41:59;;;;;;;8.73;3.25;;;22.00;99.90;;;;;;5059699;28;20179;-68
2023/07/03 11:44:31;;;;;;;9.20;2.75;;;22.40;99.90;;;;;;5061351;28;20591;-68
2023/07/03 11:47:22;;;;;;;6.88;2.88;;;22.50;1.00;;;;;;5076154;28;20660;-68
2023/07/03 11:50:03;;;;;;;5.68;2.45;;;22.50;1.00;;;;;;5075404;28;20192;-68
2023/07/03 11:52:31;;;;;;;10.60;2.90;;;22.40;99.90;;;;;;5075472;28;20176;-68
2023/07/03 11:55:11;;;;;;;7.03;2.88;;;22.30;1.00;;;;;;5059781;28;20379;-68
2023/07/03 11:57:40;;;;;;;6.57;2.55;;;22.20;99.90;;;;;;5055859;28;20184;-68
2023/07/03 12:00:22;;;;;;;5.82;2.50;;;22.50;99.90;;;;;;5055695;28;20274;-68
2023/07/03 12:03:00;;;;;;;9.48;2.90;;;23.00;1.00;;;;;;5055973;28;20629;-69
2023/07/03 12:05:47;;;;;;;7.80;3.00;;;23.40;40.50;;;;;;5058124;28;20176;-71
2023/07/03 12:08:36;;;;;;;10.00;3.00;;;23.70;1.00;;;;;;5074226;28;20241;-69
2023/07/03 12:11:03;;;;;;;10.98;2.50;;;23.60;99.90;;;;;;5073935;28;20682;-68
2023/07/03 12:13:41;;;;;;;7.57;2.80;;;23.00;1.00;;;;;;5057711;28;20243;-68
2023/07/03 12:16:14;;;;;;;8.00;3.08;;;22.50;1.00;;;;;;5074167;28;20264;-68
2023/07/03 12:18:40;;;;;;;11.38;3.13;;;22.70;1.00;;;;;;5067932;28;20208;-69
2023/07/03 12:21:06;;;;;;;10.60;2.90;;;22.60;99.90;;;;;;5073113;28;20187;-69
2023/07/03 12:23:45;;;;;;;13.73;3.45;;;22.50;99.90;;;;;;5070809;28;20558;-67
2023/07/03 12:26:16;;;;;;;8.18;3.05;;;22.40;1.00;;;;;;5073543;28;20180;-68
2023/07/03 12:28:42;;;;;;;6.60;2.83;;;22.60;1.00;;;;;;5053873;28;20185;-68
2023/07/03 12:31:18;;;;;;;13.23;3.28;;;22.70;99.90;;;;;;5072224;28;20208;-69
2023/07/03 12:33:53;;;;;;;10.02;3.42;;;22.80;99.90;;;;;;5073693;28;20183;-70
2023/07/03 12:36:26;;;;;;;10.43;3.22;;;22.80;1.00;;;;;;5073771;28;20203;-68
2023/07/03 12:38:52;;;;;;;9.77;3.05;;;22.70;1.00;;;;;;5071998;28;20230;-67
2023/07/03 12:41:36;;;;;;;11.43;2.90;;;22.70;1.00;;;;;;5070364;28;20260;-68
2023/07/03 12:44:02;;;;;;;13.05;3.13;;;22.90;1.00;;;;;;5065699;28;20632;-69
2023/07/03 12:46:34;;;;;;;16.70;4.53;;;23.00;1.00;;;;;;5054210;28;20181;-67
2023/07/03 12:49:14;;;;;;;11.73;3.17;;;23.00;99.90;;;;;;5061986;28;20656;-69
2023/07/03 12:51:54;;;;;;;11.02;3.30;;;23.10;1.00;;;;;;5073071;28;20208;-68